UAL907 KORD-EDDF
Flight info
| Callsign | UAL907 |
|---|---|
| Flight time | N/A |
| Altitude | 35000 |
| Route | RAYNR DCT BRTMN DCT TAAYZ DCT SQUIB DCT HAUCK DCT HRRSH DCT HOCKE Q824 MENKO Q802 ROSVO DCT ANCER N857B YBC N837B HOIST/M084F370 DCT 57N050W 58N040W 58N030W 57N020W DCT PIKIL DCT SOVED/N0484F370 DCT LUTOV DCT BELOX/N0477F390 L603 DOLAS DCT NAVPI DCT NOLRU DCT DIXAT DIXAT1D |
| Aircraft | B77W/H-SDE1E2E3FGHIJ2J3J4J5M1RWXY/LB1D1 |
Departure
| Time | 2026-04-30 19:35 |
|---|---|
| Airport | Chicago O'Hare International Airport (KORD) |
Arrival
| Time | N/A |
|---|---|
| Airport | Frankfurt Main Airport (EDDF) |
| Time | Latitude | Longitude | Altitude | Speed | Heading |
|---|---|---|---|---|---|
| 2026-04-30 18:47 | 41.97344 | -87.89175 | 674 ft | 0 kts | 38° |
| 2026-04-30 19:20 | 41.97331 | -87.89189 | 671 ft | 4 kts | 38° |
| 2026-04-30 19:21 | 41.97310 | -87.89211 | 672 ft | 4 kts | 32° |
| 2026-04-30 19:21 | 41.97270 | -87.89210 | 669 ft | 3 kts | 276° |
| 2026-04-30 19:22 | 41.97269 | -87.89205 | 672 ft | 0 kts | 270° |
| 2026-04-30 19:26 | 41.97289 | -87.89318 | 674 ft | 11 kts | 316° |
| 2026-04-30 19:26 | 41.97339 | -87.89394 | 674 ft | 11 kts | 306° |
| 2026-04-30 19:27 | 41.97485 | -87.89431 | 674 ft | 11 kts | 359° |
| 2026-04-30 19:27 | 41.97655 | -87.89433 | 674 ft | 22 kts | 360° |
| 2026-04-30 19:28 | 41.97843 | -87.89432 | 674 ft | 28 kts | 2° |
| 2026-04-30 19:28 | 41.98151 | -87.89174 | 674 ft | 28 kts | 338° |
| 2026-04-30 19:29 | 41.98288 | -87.89624 | 674 ft | 28 kts | 269° |
| 2026-04-30 19:29 | 41.98288 | -87.89885 | 675 ft | 28 kts | 270° |
| 2026-04-30 19:30 | 41.98288 | -87.90667 | 672 ft | 28 kts | 270° |
| 2026-04-30 19:30 | 41.98286 | -87.91189 | 675 ft | 28 kts | 269° |
| 2026-04-30 19:31 | 41.98286 | -87.91711 | 675 ft | 28 kts | 269° |
| 2026-04-30 19:31 | 41.98287 | -87.91971 | 674 ft | 28 kts | 270° |
| 2026-04-30 19:31 | 41.98281 | -87.92492 | 673 ft | 28 kts | 269° |
| 2026-04-30 19:32 | 41.98279 | -87.92753 | 673 ft | 28 kts | 269° |
| 2026-04-30 19:32 | 41.98278 | -87.93013 | 674 ft | 28 kts | 269° |
| 2026-04-30 19:32 | 41.98323 | -87.93133 | 675 ft | 12 kts | 339° |
| 2026-04-30 19:32 | 41.98408 | -87.93139 | 676 ft | 12 kts | 0° |
| 2026-04-30 19:33 | 41.98494 | -87.93140 | 674 ft | 12 kts | 359° |
| 2026-04-30 19:33 | 41.98580 | -87.93141 | 674 ft | 12 kts | 359° |
| 2026-04-30 19:33 | 41.98666 | -87.93141 | 674 ft | 12 kts | 1° |
| 2026-04-30 19:33 | 41.98750 | -87.93137 | 674 ft | 12 kts | 2° |
| 2026-04-30 19:34 | 41.98823 | -87.93112 | 674 ft | 10 kts | 50° |
| 2026-04-30 19:34 | 41.98829 | -87.93065 | 675 ft | 0 kts | 88° |
| 2026-04-30 19:35 | 41.98830 | -87.93005 | 675 ft | 23 kts | 88° |
| 2026-04-30 19:35 | 41.98834 | -87.92377 | 676 ft | 112 kts | 90° |
| 2026-04-30 19:35 | 41.98835 | -87.90951 | 680 ft | 188 kts | 89° |
| 2026-04-30 19:35 | 41.98931 | -87.89225 | 1588 ft | 176 kts | 66° |
| 2026-04-30 19:36 | 41.99823 | -87.87892 | 1958 ft | 217 kts | 23° |
| 2026-04-30 19:36 | 42.01253 | -87.87564 | 2871 ft | 201 kts | 0° |
| 2026-04-30 19:36 | 42.04150 | -87.87375 | 3943 ft | 223 kts | 360° |
| 2026-04-30 19:37 | 42.05734 | -87.87213 | 4539 ft | 233 kts | 2° |
| 2026-04-30 19:37 | 42.07382 | -87.86999 | 5191 ft | 242 kts | 1° |
| 2026-04-30 19:37 | 42.09095 | -87.86781 | 5848 ft | 252 kts | 1° |
| 2026-04-30 19:37 | 42.10886 | -87.86529 | 6478 ft | 265 kts | 3° |
| 2026-04-30 19:38 | 42.12748 | -87.86208 | 7211 ft | 273 kts | 4° |
| 2026-04-30 19:38 | 42.14651 | -87.85856 | 8039 ft | 278 kts | 3° |
| 2026-04-30 19:38 | 42.16569 | -87.85481 | 8918 ft | 279 kts | 5° |
| 2026-04-30 19:38 | 42.18395 | -87.84461 | 9605 ft | 299 kts | 34° |
| 2026-04-30 19:39 | 42.19676 | -87.82184 | 10310 ft | 316 kts | 63° |
| 2026-04-30 19:39 | 42.20503 | -87.79354 | 10634 ft | 336 kts | 65° |
| 2026-04-30 19:39 | 42.21390 | -87.76303 | 10854 ft | 362 kts | 65° |
| 2026-04-30 19:39 | 42.22343 | -87.73030 | 11048 ft | 387 kts | 65° |
| 2026-04-30 19:40 | 42.23344 | -87.69579 | 11597 ft | 401 kts | 65° |
| 2026-04-30 19:40 | 42.24369 | -87.66031 | 12330 ft | 410 kts | 65° |
| 2026-04-30 19:40 | 42.25413 | -87.62424 | 13160 ft | 416 kts | 64° |
| 2026-04-30 19:40 | 42.26458 | -87.58808 | 14002 ft | 422 kts | 65° |
| 2026-04-30 19:41 | 42.27473 | -87.55065 | 14790 ft | 427 kts | 66° |
| 2026-04-30 19:41 | 42.28477 | -87.51269 | 15624 ft | 431 kts | 66° |
| 2026-04-30 19:41 | 42.29504 | -87.47456 | 16432 ft | 435 kts | 65° |
| 2026-04-30 19:41 | 42.30569 | -87.43612 | 17227 ft | 439 kts | 65° |
| 2026-04-30 19:42 | 42.31667 | -87.39737 | 18019 ft | 444 kts | 65° |
| 2026-04-30 19:42 | 42.32806 | -87.35778 | 18731 ft | 448 kts | 64° |
| 2026-04-30 19:42 | 42.33932 | -87.31890 | 19399 ft | 453 kts | 64° |
| 2026-04-30 19:42 | 42.35088 | -87.27912 | 20089 ft | 457 kts | 64° |
| 2026-04-30 19:43 | 42.36254 | -87.23899 | 20735 ft | 461 kts | 64° |
| 2026-04-30 19:43 | 42.37432 | -87.19842 | 21400 ft | 466 kts | 64° |
| 2026-04-30 19:43 | 42.38621 | -87.15736 | 22003 ft | 472 kts | 64° |
| 2026-04-30 19:44 | 42.41031 | -87.07384 | 23219 ft | 481 kts | 64° |
| 2026-04-30 19:44 | 42.42250 | -87.03143 | 23786 ft | 486 kts | 64° |
| 2026-04-30 19:44 | 42.43478 | -86.98865 | 24270 ft | 490 kts | 64° |
| 2026-04-30 19:44 | 42.44716 | -86.94544 | 24770 ft | 494 kts | 64° |
| 2026-04-30 19:45 | 42.45965 | -86.90180 | 25193 ft | 500 kts | 64° |
| 2026-04-30 19:45 | 42.47224 | -86.85770 | 25640 ft | 504 kts | 64° |
| 2026-04-30 19:45 | 42.48492 | -86.81322 | 26115 ft | 508 kts | 64° |
| 2026-04-30 19:45 | 42.49767 | -86.76840 | 26591 ft | 511 kts | 64° |
| 2026-04-30 19:46 | 42.51047 | -86.72331 | 27035 ft | 515 kts | 64° |
| 2026-04-30 19:46 | 42.51902 | -86.69319 | 27317 ft | 518 kts | 64° |
| 2026-04-30 19:46 | 42.53196 | -86.64748 | 27722 ft | 522 kts | 64° |
| 2026-04-30 19:46 | 42.54499 | -86.60140 | 28125 ft | 525 kts | 64° |
| 2026-04-30 19:47 | 42.55809 | -86.55498 | 28509 ft | 529 kts | 64° |
| 2026-04-30 19:47 | 42.57123 | -86.50829 | 28961 ft | 531 kts | 65° |
| 2026-04-30 19:47 | 42.58444 | -86.46131 | 29372 ft | 533 kts | 65° |
| 2026-04-30 19:47 | 42.59766 | -86.41418 | 29713 ft | 536 kts | 65° |
| 2026-04-30 19:48 | 42.61094 | -86.36675 | 30058 ft | 539 kts | 65° |
| 2026-04-30 19:48 | 42.62424 | -86.31915 | 30416 ft | 539 kts | 65° |
| 2026-04-30 19:48 | 42.63751 | -86.27152 | 30813 ft | 538 kts | 65° |
| 2026-04-30 19:48 | 42.65071 | -86.22408 | 31242 ft | 537 kts | 65° |
| 2026-04-30 19:49 | 42.66388 | -86.17667 | 31657 ft | 536 kts | 65° |
| 2026-04-30 19:49 | 42.69010 | -86.08206 | 32426 ft | 534 kts | 66° |
| 2026-04-30 19:49 | 42.70317 | -86.03476 | 32783 ft | 534 kts | 66° |
| 2026-04-30 19:50 | 42.71622 | -85.98747 | 33142 ft | 534 kts | 66° |
| 2026-04-30 19:50 | 42.72921 | -85.94028 | 33500 ft | 533 kts | 66° |
| 2026-04-30 19:50 | 42.74219 | -85.89306 | 33847 ft | 533 kts | 66° |
| 2026-04-30 19:50 | 42.75514 | -85.84585 | 34163 ft | 532 kts | 66° |
| 2026-04-30 19:51 | 42.76805 | -85.79870 | 34422 ft | 532 kts | 66° |
| 2026-04-30 19:51 | 42.78095 | -85.75148 | 34649 ft | 532 kts | 66° |
| 2026-04-30 19:51 | 42.79382 | -85.70427 | 34894 ft | 532 kts | 66° |
| 2026-04-30 19:51 | 42.80668 | -85.65701 | 35150 ft | 532 kts | 67° |
| 2026-04-30 19:52 | 42.81951 | -85.60978 | 35402 ft | 531 kts | 67° |
| 2026-04-30 19:52 | 42.83230 | -85.56262 | 35649 ft | 531 kts | 67° |
| 2026-04-30 19:52 | 42.84509 | -85.51535 | 35893 ft | 531 kts | 67° |
| 2026-04-30 19:52 | 42.85782 | -85.46820 | 36128 ft | 531 kts | 67° |
| 2026-04-30 19:53 | 42.87055 | -85.42099 | 36354 ft | 530 kts | 67° |
| 2026-04-30 19:53 | 42.88323 | -85.37385 | 36659 ft | 528 kts | 67° |
| 2026-04-30 19:53 | 42.89581 | -85.32695 | 37025 ft | 525 kts | 67° |
| 2026-04-30 19:53 | 42.90833 | -85.28023 | 37284 ft | 525 kts | 67° |
| 2026-04-30 19:54 | 42.92086 | -85.23342 | 37388 ft | 527 kts | 67° |
| 2026-04-30 19:54 | 42.93346 | -85.18624 | 37472 ft | 530 kts | 68° |
| 2026-04-30 19:54 | 42.94607 | -85.13891 | 37593 ft | 532 kts | 68° |
| 2026-04-30 19:54 | 42.95870 | -85.09142 | 37712 ft | 533 kts | 68° |
| 2026-04-30 19:55 | 42.97132 | -85.04389 | 37852 ft | 534 kts | 68° |
| 2026-04-30 19:55 | 42.98349 | -84.99595 | 37975 ft | 535 kts | 70° |
| 2026-04-30 19:55 | 43.00612 | -84.89884 | 38141 ft | 538 kts | 71° |
| 2026-04-30 19:56 | 43.02836 | -84.80105 | 38332 ft | 540 kts | 71° |
| 2026-04-30 19:56 | 43.05096 | -84.70300 | 38481 ft | 541 kts | 70° |
| 2026-04-30 19:57 | 43.07374 | -84.60477 | 38647 ft | 543 kts | 71° |
| 2026-04-30 19:57 | 43.09652 | -84.50621 | 38775 ft | 544 kts | 71° |
| 2026-04-30 19:58 | 43.11922 | -84.40739 | 38922 ft | 544 kts | 71° |
| 2026-04-30 19:58 | 43.14183 | -84.30846 | 39017 ft | 545 kts | 71° |
| 2026-04-30 19:59 | 43.16422 | -84.21003 | 39027 ft | 545 kts | 71° |
| 2026-04-30 20:00 | 43.19808 | -84.06035 | 39026 ft | 547 kts | 71° |
| 2026-04-30 20:00 | 43.22035 | -83.96139 | 39025 ft | 547 kts | 71° |
| 2026-04-30 20:01 | 43.24039 | -83.80752 | 39022 ft | 549 kts | 88° |
| 2026-04-30 20:01 | 43.24240 | -83.70290 | 39025 ft | 549 kts | 89° |
| 2026-04-30 20:02 | 43.24534 | -83.54580 | 39024 ft | 549 kts | 88° |
| 2026-04-30 20:03 | 43.24896 | -83.38871 | 39021 ft | 549 kts | 88° |
| 2026-04-30 20:03 | 43.25128 | -83.28409 | 39008 ft | 549 kts | 89° |
| 2026-04-30 20:04 | 43.25345 | -83.17959 | 39010 ft | 548 kts | 89° |
| 2026-04-30 20:05 | 43.25652 | -83.02304 | 38998 ft | 547 kts | 89° |
| 2026-04-30 20:05 | 43.25938 | -82.86673 | 38988 ft | 546 kts | 89° |
| 2026-04-30 20:06 | 43.26297 | -82.76282 | 38987 ft | 545 kts | 81° |
| 2026-04-30 20:06 | 43.28243 | -82.66266 | 39021 ft | 543 kts | 67° |
| 2026-04-30 20:07 | 43.31673 | -82.57063 | 39026 ft | 541 kts | 58° |
| 2026-04-30 20:08 | 43.37277 | -82.43569 | 39038 ft | 543 kts | 59° |
| 2026-04-30 20:08 | 43.40929 | -82.34471 | 39038 ft | 544 kts | 60° |
| 2026-04-30 20:09 | 43.44561 | -82.25337 | 39039 ft | 544 kts | 60° |
| 2026-04-30 20:09 | 43.50055 | -82.11738 | 39041 ft | 544 kts | 58° |
| 2026-04-30 20:10 | 43.55694 | -81.98156 | 39062 ft | 544 kts | 59° |
| 2026-04-30 20:11 | 43.61292 | -81.84533 | 39034 ft | 544 kts | 59° |
| 2026-04-30 20:11 | 43.65005 | -81.75449 | 39020 ft | 543 kts | 59° |
| 2026-04-30 20:12 | 43.70562 | -81.61811 | 38997 ft | 542 kts | 59° |
| 2026-04-30 20:13 | 43.74246 | -81.52721 | 39010 ft | 542 kts | 60° |
| 2026-04-30 20:13 | 43.77884 | -81.43591 | 39001 ft | 541 kts | 60° |
| 2026-04-30 20:14 | 43.81492 | -81.34463 | 38993 ft | 540 kts | 60° |
| 2026-04-30 20:14 | 43.85095 | -81.25332 | 38987 ft | 540 kts | 60° |
| 2026-04-30 20:15 | 43.88688 | -81.16214 | 39012 ft | 539 kts | 60° |
| 2026-04-30 20:15 | 43.92276 | -81.07082 | 38988 ft | 539 kts | 60° |
| 2026-04-30 20:16 | 43.95854 | -80.97946 | 38986 ft | 538 kts | 60° |
| 2026-04-30 20:16 | 43.99418 | -80.88816 | 38977 ft | 538 kts | 61° |
| 2026-04-30 20:17 | 44.02974 | -80.79673 | 38979 ft | 538 kts | 61° |
| 2026-04-30 20:17 | 44.06521 | -80.70526 | 38989 ft | 537 kts | 61° |
| 2026-04-30 20:18 | 44.10037 | -80.61430 | 38978 ft | 538 kts | 61° |
| 2026-04-30 20:18 | 44.13570 | -80.52260 | 38972 ft | 537 kts | 61° |
| 2026-04-30 20:19 | 44.17093 | -80.43085 | 38981 ft | 537 kts | 61° |
| 2026-04-30 20:19 | 44.20610 | -80.33896 | 38984 ft | 537 kts | 62° |
| 2026-04-30 20:20 | 44.24120 | -80.24696 | 38993 ft | 537 kts | 62° |
| 2026-04-30 20:20 | 44.27622 | -80.15484 | 38977 ft | 537 kts | 62° |
| 2026-04-30 20:21 | 44.31115 | -80.06266 | 38991 ft | 537 kts | 62° |
| 2026-04-30 20:21 | 44.34600 | -79.97042 | 38991 ft | 537 kts | 62° |
| 2026-04-30 20:22 | 44.38074 | -79.87813 | 38985 ft | 537 kts | 62° |
| 2026-04-30 20:22 | 44.41544 | -79.78564 | 38977 ft | 537 kts | 62° |
| 2026-04-30 20:23 | 44.45001 | -79.69319 | 38975 ft | 537 kts | 62° |
| 2026-04-30 20:23 | 44.48454 | -79.60053 | 38977 ft | 537 kts | 63° |
| 2026-04-30 20:24 | 44.51899 | -79.50780 | 38966 ft | 537 kts | 63° |
| 2026-04-30 20:24 | 44.55336 | -79.41497 | 38957 ft | 536 kts | 63° |
| 2026-04-30 20:25 | 44.60471 | -79.27567 | 38960 ft | 536 kts | 63° |
| 2026-04-30 20:26 | 44.65565 | -79.13677 | 38939 ft | 536 kts | 63° |
| 2026-04-30 20:26 | 44.70665 | -78.99700 | 38926 ft | 536 kts | 63° |
| 2026-04-30 20:27 | 44.77626 | -78.81191 | 38917 ft | 536 kts | 57° |
| 2026-04-30 20:28 | 44.87132 | -78.65101 | 38916 ft | 535 kts | 47° |
| 2026-04-30 20:30 | 44.99480 | -78.45456 | 38911 ft | 535 kts | 49° |
| 2026-04-30 20:31 | 45.14179 | -78.21665 | 38908 ft | 535 kts | 49° |
| 2026-04-30 20:32 | 45.26383 | -78.01775 | 38901 ft | 534 kts | 49° |
| 2026-04-30 20:33 | 45.33679 | -77.89816 | 38915 ft | 533 kts | 49° |
| 2026-04-30 20:34 | 45.40130 | -77.79198 | 38910 ft | 533 kts | 50° |
| 2026-04-30 20:35 | 45.47373 | -77.67228 | 38901 ft | 532 kts | 50° |
| 2026-04-30 20:35 | 45.54596 | -77.55240 | 38908 ft | 531 kts | 50° |
| 2026-04-30 20:36 | 45.59308 | -77.47136 | 38904 ft | 530 kts | 55° |
| 2026-04-30 20:37 | 45.65116 | -77.33752 | 38891 ft | 529 kts | 60° |
| 2026-04-30 20:37 | 45.68836 | -77.24767 | 38908 ft | 529 kts | 60° |
| 2026-04-30 20:38 | 45.72616 | -77.15723 | 38890 ft | 530 kts | 60° |
| 2026-04-30 20:38 | 45.76410 | -77.06692 | 38898 ft | 530 kts | 60° |
| 2026-04-30 20:39 | 45.82105 | -76.93106 | 38897 ft | 530 kts | 60° |
| 2026-04-30 20:40 | 45.87772 | -76.79505 | 38892 ft | 529 kts | 60° |
| 2026-04-30 20:40 | 45.91537 | -76.70427 | 38890 ft | 529 kts | 60° |
| 2026-04-30 20:41 | 45.97171 | -76.56791 | 38875 ft | 529 kts | 61° |
| 2026-04-30 20:41 | 46.00917 | -76.47686 | 38884 ft | 529 kts | 61° |
| 2026-04-30 20:42 | 46.04656 | -76.38568 | 38853 ft | 529 kts | 61° |
| 2026-04-30 20:43 | 46.10245 | -76.24882 | 38879 ft | 528 kts | 61° |
| 2026-04-30 20:43 | 46.13963 | -76.15743 | 38875 ft | 528 kts | 61° |
| 2026-04-30 20:44 | 46.19522 | -76.02017 | 38885 ft | 528 kts | 61° |
| 2026-04-30 20:45 | 46.26889 | -75.83723 | 38871 ft | 528 kts | 62° |
| 2026-04-30 20:45 | 46.30572 | -75.74531 | 38879 ft | 528 kts | 62° |
| 2026-04-30 20:46 | 46.37916 | -75.56111 | 38880 ft | 528 kts | 62° |
| 2026-04-30 20:47 | 46.43405 | -75.42261 | 38881 ft | 529 kts | 62° |
| 2026-04-30 20:48 | 46.48878 | -75.28385 | 38873 ft | 528 kts | 62° |
| 2026-04-30 20:48 | 46.52514 | -75.19123 | 38877 ft | 528 kts | 62° |
| 2026-04-30 20:49 | 46.56141 | -75.09855 | 38877 ft | 528 kts | 62° |
| 2026-04-30 20:50 | 46.61566 | -74.95933 | 38883 ft | 527 kts | 63° |
| 2026-04-30 20:50 | 46.65171 | -74.86642 | 38869 ft | 527 kts | 63° |
| 2026-04-30 20:51 | 46.68766 | -74.77345 | 38864 ft | 526 kts | 63° |
| 2026-04-30 20:51 | 46.74140 | -74.63391 | 38864 ft | 526 kts | 63° |
| 2026-04-30 20:52 | 46.77708 | -74.54082 | 38865 ft | 526 kts | 63° |
| 2026-04-30 20:53 | 46.83040 | -74.40114 | 38854 ft | 525 kts | 63° |
| 2026-04-30 20:53 | 46.86584 | -74.30790 | 38826 ft | 525 kts | 63° |
| 2026-04-30 20:54 | 46.91880 | -74.16799 | 38841 ft | 524 kts | 63° |
| 2026-04-30 20:55 | 46.97146 | -74.02810 | 38832 ft | 523 kts | 63° |
| 2026-04-30 20:55 | 47.00648 | -73.93467 | 38830 ft | 523 kts | 63° |
| 2026-04-30 20:56 | 47.05856 | -73.79515 | 38824 ft | 522 kts | 63° |
| 2026-04-30 20:57 | 47.11061 | -73.65497 | 38807 ft | 521 kts | 64° |
| 2026-04-30 20:57 | 47.14516 | -73.56153 | 38806 ft | 520 kts | 64° |
| 2026-04-30 20:58 | 47.19673 | -73.42141 | 38797 ft | 519 kts | 64° |
| 2026-04-30 20:58 | 47.23096 | -73.32800 | 38805 ft | 518 kts | 64° |
| 2026-04-30 20:59 | 47.28208 | -73.18786 | 38766 ft | 517 kts | 64° |
| 2026-04-30 21:00 | 47.34979 | -73.00115 | 38786 ft | 516 kts | 64° |
| 2026-04-30 21:01 | 47.40031 | -72.86096 | 38772 ft | 516 kts | 65° |
| 2026-04-30 21:02 | 47.45058 | -72.72073 | 38763 ft | 515 kts | 65° |
| 2026-04-30 21:02 | 47.48398 | -72.62714 | 38763 ft | 515 kts | 65° |
| 2026-04-30 21:03 | 47.51728 | -72.53348 | 38741 ft | 515 kts | 65° |
| 2026-04-30 21:03 | 47.55051 | -72.43972 | 38743 ft | 514 kts | 65° |
| 2026-04-30 21:04 | 47.58346 | -72.34642 | 38752 ft | 514 kts | 65° |
| 2026-04-30 21:04 | 47.63304 | -72.20535 | 38730 ft | 515 kts | 65° |
| 2026-04-30 21:05 | 47.66600 | -72.11118 | 38732 ft | 515 kts | 65° |
| 2026-04-30 21:05 | 47.69891 | -72.01682 | 38721 ft | 514 kts | 65° |
| 2026-04-30 21:06 | 47.73171 | -71.92241 | 38730 ft | 515 kts | 65° |
| 2026-04-30 21:06 | 47.76445 | -71.82780 | 38731 ft | 514 kts | 65° |
| 2026-04-30 21:07 | 47.79711 | -71.73311 | 38744 ft | 515 kts | 66° |
| 2026-04-30 21:07 | 47.82970 | -71.63828 | 38729 ft | 515 kts | 66° |
| 2026-04-30 21:08 | 47.86220 | -71.54338 | 38737 ft | 514 kts | 66° |
| 2026-04-30 21:08 | 47.89454 | -71.44857 | 38725 ft | 513 kts | 66° |
| 2026-04-30 21:09 | 47.92676 | -71.35378 | 38738 ft | 512 kts | 66° |
| 2026-04-30 21:09 | 47.95886 | -71.25899 | 38745 ft | 512 kts | 66° |
| 2026-04-30 21:10 | 47.99087 | -71.16415 | 38758 ft | 511 kts | 66° |
| 2026-04-30 21:10 | 48.02279 | -71.06919 | 38764 ft | 511 kts | 66° |
| 2026-04-30 21:11 | 48.05437 | -70.97489 | 38774 ft | 511 kts | 66° |
| 2026-04-30 21:11 | 48.08608 | -70.87986 | 38782 ft | 511 kts | 66° |
| 2026-04-30 21:12 | 48.11772 | -70.78470 | 38789 ft | 511 kts | 66° |
| 2026-04-30 21:12 | 48.14927 | -70.68945 | 38800 ft | 511 kts | 66° |
| 2026-04-30 21:13 | 48.18080 | -70.59389 | 38814 ft | 512 kts | 66° |
| 2026-04-30 21:13 | 48.21229 | -70.49812 | 38817 ft | 513 kts | 66° |
| 2026-04-30 21:14 | 48.24374 | -70.40210 | 38825 ft | 513 kts | 67° |
| 2026-04-30 21:14 | 48.27512 | -70.30595 | 38809 ft | 512 kts | 67° |
| 2026-04-30 21:15 | 48.30638 | -70.20978 | 38848 ft | 512 kts | 67° |
| 2026-04-30 21:15 | 48.33754 | -70.11356 | 38860 ft | 513 kts | 67° |
| 2026-04-30 21:16 | 48.36869 | -70.01697 | 38845 ft | 514 kts | 67° |
| 2026-04-30 21:16 | 48.39984 | -69.92004 | 38847 ft | 514 kts | 67° |
| 2026-04-30 21:17 | 48.43084 | -69.82322 | 38866 ft | 512 kts | 67° |
| 2026-04-30 21:17 | 48.46167 | -69.72655 | 38858 ft | 511 kts | 67° |
| 2026-04-30 21:18 | 48.49229 | -69.63015 | 38868 ft | 509 kts | 67° |
| 2026-04-30 21:18 | 48.52274 | -69.53397 | 38873 ft | 507 kts | 67° |
| 2026-04-30 21:19 | 48.55324 | -69.43889 | 38876 ft | 507 kts | 64° |
| 2026-04-30 21:19 | 48.59187 | -69.34976 | 38891 ft | 508 kts | 55° |
| 2026-04-30 21:20 | 48.63431 | -69.26455 | 38888 ft | 507 kts | 55° |
| 2026-04-30 21:20 | 48.67689 | -69.17852 | 38891 ft | 507 kts | 56° |
| 2026-04-30 21:21 | 48.71852 | -69.09314 | 38891 ft | 508 kts | 56° |
| 2026-04-30 21:22 | 48.78106 | -68.96368 | 38892 ft | 507 kts | 56° |
| 2026-04-30 21:23 | 48.86429 | -68.79060 | 38900 ft | 508 kts | 56° |
| 2026-04-30 21:23 | 48.92663 | -68.66026 | 38906 ft | 508 kts | 56° |
| 2026-04-30 21:24 | 48.96112 | -68.58788 | 38902 ft | 508 kts | 56° |
| 2026-04-30 21:24 | 49.00249 | -68.50079 | 38906 ft | 508 kts | 56° |
| 2026-04-30 21:25 | 49.06439 | -68.36994 | 38909 ft | 507 kts | 56° |
| 2026-04-30 21:26 | 49.12618 | -68.23914 | 38899 ft | 506 kts | 54° |
| 2026-04-30 21:27 | 49.19816 | -68.12106 | 38910 ft | 507 kts | 46° |
| 2026-04-30 21:27 | 49.24829 | -68.04520 | 38927 ft | 507 kts | 46° |
| 2026-04-30 21:28 | 49.32290 | -67.93059 | 38944 ft | 506 kts | 46° |
| 2026-04-30 21:29 | 49.39704 | -67.81516 | 38946 ft | 506 kts | 46° |
| 2026-04-30 21:30 | 49.51987 | -67.62274 | 38973 ft | 505 kts | 47° |
| 2026-04-30 21:31 | 49.64258 | -67.42917 | 38987 ft | 505 kts | 47° |
| 2026-04-30 21:32 | 49.71607 | -67.31250 | 38994 ft | 505 kts | 47° |
| 2026-04-30 21:32 | 49.76494 | -67.23462 | 39011 ft | 504 kts | 47° |
| 2026-04-30 21:33 | 49.83812 | -67.11756 | 39017 ft | 504 kts | 47° |
| 2026-04-30 21:34 | 49.88687 | -67.03927 | 39020 ft | 505 kts | 47° |
| 2026-04-30 21:34 | 49.95986 | -66.92161 | 39031 ft | 504 kts | 47° |
| 2026-04-30 21:35 | 50.00846 | -66.84298 | 39031 ft | 504 kts | 48° |
| 2026-04-30 21:35 | 50.05696 | -66.76421 | 39050 ft | 505 kts | 48° |
| 2026-04-30 21:36 | 50.10553 | -66.68510 | 39054 ft | 505 kts | 48° |
| 2026-04-30 21:37 | 50.20251 | -66.52640 | 39072 ft | 505 kts | 49° |
| 2026-04-30 21:37 | 50.25086 | -66.44697 | 39072 ft | 504 kts | 48° |
| 2026-04-30 21:38 | 50.29900 | -66.36756 | 39075 ft | 502 kts | 48° |
| 2026-04-30 21:38 | 50.34692 | -66.28830 | 39073 ft | 500 kts | 49° |
| 2026-04-30 21:39 | 50.39457 | -66.20922 | 39063 ft | 498 kts | 49° |
| 2026-04-30 21:39 | 50.44204 | -66.13019 | 39074 ft | 498 kts | 49° |
| 2026-04-30 21:40 | 50.48946 | -66.05100 | 39077 ft | 498 kts | 49° |
| 2026-04-30 21:40 | 50.53656 | -65.97209 | 39085 ft | 499 kts | 49° |
| 2026-04-30 21:41 | 50.58402 | -65.89232 | 39084 ft | 500 kts | 49° |
| 2026-04-30 21:41 | 50.63152 | -65.81226 | 39091 ft | 501 kts | 49° |
| 2026-04-30 21:42 | 50.67904 | -65.73189 | 39108 ft | 501 kts | 49° |
| 2026-04-30 21:42 | 50.72660 | -65.65119 | 39098 ft | 502 kts | 49° |
| 2026-04-30 21:43 | 50.77414 | -65.57027 | 39095 ft | 503 kts | 49° |
| 2026-04-30 21:43 | 50.82174 | -65.48901 | 39085 ft | 504 kts | 49° |
| 2026-04-30 21:44 | 50.86928 | -65.40757 | 39085 ft | 504 kts | 49° |
| 2026-04-30 21:44 | 50.91682 | -65.32585 | 39111 ft | 504 kts | 49° |
| 2026-04-30 21:45 | 50.96429 | -65.24402 | 39116 ft | 504 kts | 49° |
| 2026-04-30 21:45 | 51.01169 | -65.16203 | 39099 ft | 504 kts | 49° |
| 2026-04-30 21:46 | 51.05896 | -65.07999 | 39104 ft | 503 kts | 49° |
| 2026-04-30 21:46 | 51.10619 | -64.99777 | 39107 ft | 503 kts | 49° |
| 2026-04-30 21:47 | 51.15327 | -64.91553 | 39120 ft | 502 kts | 49° |
| 2026-04-30 21:47 | 51.20024 | -64.83321 | 39102 ft | 502 kts | 49° |
| 2026-04-30 21:48 | 51.24710 | -64.75080 | 39117 ft | 501 kts | 49° |
| 2026-04-30 21:48 | 51.29390 | -64.66825 | 39106 ft | 501 kts | 49° |
| 2026-04-30 21:49 | 51.34060 | -64.58561 | 39106 ft | 501 kts | 49° |
| 2026-04-30 21:49 | 51.38690 | -64.50340 | 39101 ft | 500 kts | 49° |
| 2026-04-30 21:50 | 51.43341 | -64.42055 | 39116 ft | 500 kts | 49° |
| 2026-04-30 21:50 | 51.47981 | -64.33761 | 39116 ft | 499 kts | 49° |
| 2026-04-30 21:51 | 51.52616 | -64.25450 | 39113 ft | 499 kts | 49° |
| 2026-04-30 21:51 | 51.57235 | -64.17138 | 39112 ft | 499 kts | 49° |
| 2026-04-30 21:52 | 51.61851 | -64.08808 | 39110 ft | 498 kts | 49° |
| 2026-04-30 21:52 | 51.66456 | -64.00468 | 39117 ft | 498 kts | 50° |
| 2026-04-30 21:53 | 51.71053 | -63.92115 | 39119 ft | 498 kts | 50° |
| 2026-04-30 21:53 | 51.75636 | -63.83758 | 39125 ft | 497 kts | 50° |
| 2026-04-30 21:54 | 51.80209 | -63.75392 | 39123 ft | 496 kts | 50° |
| 2026-04-30 21:54 | 51.84769 | -63.67024 | 39131 ft | 496 kts | 50° |
| 2026-04-30 21:55 | 51.89322 | -63.58642 | 39130 ft | 496 kts | 50° |
| 2026-04-30 21:55 | 51.93869 | -63.50239 | 39139 ft | 496 kts | 50° |
| 2026-04-30 21:56 | 51.98408 | -63.41824 | 39134 ft | 496 kts | 50° |
| 2026-04-30 21:56 | 52.02939 | -63.33396 | 39134 ft | 495 kts | 50° |
| 2026-04-30 21:57 | 52.07461 | -63.24959 | 39134 ft | 495 kts | 50° |
| 2026-04-30 21:57 | 52.11980 | -63.16496 | 39133 ft | 495 kts | 50° |
| 2026-04-30 21:58 | 52.16494 | -63.08014 | 39135 ft | 496 kts | 50° |
| 2026-04-30 21:58 | 52.20972 | -62.99574 | 39144 ft | 496 kts | 50° |
| 2026-04-30 21:59 | 52.25478 | -62.91050 | 39138 ft | 496 kts | 50° |
| 2026-04-30 22:00 | 52.32228 | -62.78227 | 39135 ft | 496 kts | 50° |
| 2026-04-30 22:00 | 52.38967 | -62.65359 | 39127 ft | 497 kts | 50° |
| 2026-04-30 22:01 | 52.43455 | -62.56755 | 39123 ft | 497 kts | 51° |
| 2026-04-30 22:01 | 52.47935 | -62.48134 | 39140 ft | 497 kts | 51° |
| 2026-04-30 22:02 | 52.52411 | -62.39492 | 39130 ft | 497 kts | 51° |
| 2026-04-30 22:02 | 52.56885 | -62.30824 | 39130 ft | 497 kts | 51° |
| 2026-04-30 22:03 | 52.61352 | -62.22139 | 39132 ft | 497 kts | 51° |
| 2026-04-30 22:03 | 52.65816 | -62.13432 | 39132 ft | 498 kts | 51° |
| 2026-04-30 22:04 | 52.70275 | -62.04702 | 39134 ft | 498 kts | 51° |
| 2026-04-30 22:05 | 52.76951 | -61.91574 | 39134 ft | 498 kts | 51° |
| 2026-04-30 22:05 | 52.81396 | -61.82798 | 39131 ft | 498 kts | 51° |
| 2026-04-30 22:06 | 52.85831 | -61.74007 | 39132 ft | 498 kts | 51° |
| 2026-04-30 22:06 | 52.92474 | -61.60784 | 39127 ft | 498 kts | 51° |
| 2026-04-30 22:07 | 52.96891 | -61.51955 | 39129 ft | 497 kts | 51° |
| 2026-04-30 22:07 | 53.01301 | -61.43106 | 39117 ft | 497 kts | 51° |
| 2026-04-30 22:08 | 53.05705 | -61.34240 | 39128 ft | 498 kts | 51° |
| 2026-04-30 22:08 | 53.10107 | -61.25346 | 39105 ft | 498 kts | 52° |
| 2026-04-30 22:09 | 53.14499 | -61.16440 | 39120 ft | 498 kts | 52° |
| 2026-04-30 22:09 | 53.18889 | -61.07506 | 39116 ft | 498 kts | 52° |
| 2026-04-30 22:10 | 53.23270 | -60.98559 | 39115 ft | 498 kts | 52° |
| 2026-04-30 22:10 | 53.27644 | -60.89592 | 39112 ft | 498 kts | 52° |
| 2026-04-30 22:11 | 53.34201 | -60.76092 | 39102 ft | 498 kts | 52° |
| 2026-04-30 22:12 | 53.38534 | -60.67132 | 39092 ft | 499 kts | 52° |
| 2026-04-30 22:12 | 53.42183 | -60.59560 | 39109 ft | 499 kts | 52° |
| 2026-04-30 22:13 | 53.47244 | -60.49021 | 39101 ft | 499 kts | 52° |
| 2026-04-30 22:13 | 53.50887 | -60.41407 | 39083 ft | 499 kts | 52° |
| 2026-04-30 22:14 | 53.55229 | -60.32302 | 39106 ft | 499 kts | 52° |
| 2026-04-30 22:14 | 53.59563 | -60.23179 | 39110 ft | 499 kts | 52° |
| 2026-04-30 22:15 | 53.63894 | -60.14031 | 39105 ft | 499 kts | 52° |
| 2026-04-30 22:15 | 53.68216 | -60.04867 | 39095 ft | 500 kts | 52° |
| 2026-04-30 22:16 | 53.72537 | -59.95672 | 39102 ft | 500 kts | 52° |
| 2026-04-30 22:17 | 53.81139 | -59.77265 | 39112 ft | 501 kts | 52° |
| 2026-04-30 22:17 | 53.87611 | -59.63326 | 39114 ft | 503 kts | 52° |
| 2026-04-30 22:18 | 53.94083 | -59.49310 | 39117 ft | 504 kts | 53° |
| 2026-04-30 22:19 | 54.00549 | -59.35226 | 39111 ft | 504 kts | 53° |
| 2026-04-30 22:20 | 54.07007 | -59.21081 | 39117 ft | 505 kts | 53° |
| 2026-04-30 22:20 | 54.13448 | -59.06891 | 39117 ft | 505 kts | 53° |
| 2026-04-30 22:21 | 54.17735 | -58.97402 | 39113 ft | 505 kts | 53° |
| 2026-04-30 22:21 | 54.22012 | -58.87901 | 39115 ft | 505 kts | 53° |
| 2026-04-30 22:22 | 54.26287 | -58.78365 | 39119 ft | 505 kts | 53° |
| 2026-04-30 22:22 | 54.30549 | -58.68823 | 39098 ft | 504 kts | 53° |
| 2026-04-30 22:23 | 54.34799 | -58.59269 | 39115 ft | 505 kts | 53° |
| 2026-04-30 22:23 | 54.39048 | -58.49684 | 39119 ft | 505 kts | 53° |
| 2026-04-30 22:24 | 54.43297 | -58.40060 | 39118 ft | 506 kts | 53° |
| 2026-04-30 22:24 | 54.47539 | -58.30414 | 39118 ft | 506 kts | 53° |
| 2026-04-30 22:25 | 54.51778 | -58.20739 | 39122 ft | 507 kts | 53° |
| 2026-04-30 22:25 | 54.55987 | -58.11093 | 39119 ft | 507 kts | 53° |
| 2026-04-30 22:26 | 54.62329 | -57.96487 | 39124 ft | 507 kts | 53° |
| 2026-04-30 22:27 | 54.66551 | -57.86717 | 39125 ft | 507 kts | 53° |
| 2026-04-30 22:27 | 54.72867 | -57.72030 | 39127 ft | 508 kts | 53° |
| 2026-04-30 22:28 | 54.79165 | -57.57295 | 39134 ft | 508 kts | 53° |
| 2026-04-30 22:29 | 54.87536 | -57.37574 | 39143 ft | 507 kts | 53° |
| 2026-04-30 22:31 | 55.02109 | -57.02866 | 39144 ft | 508 kts | 54° |
| 2026-04-30 22:32 | 55.11012 | -56.76295 | 39158 ft | 508 kts | 62° |
| 2026-04-30 22:33 | 55.19622 | -56.49248 | 39162 ft | 510 kts | 61° |
| 2026-04-30 22:35 | 55.28233 | -56.22060 | 39169 ft | 511 kts | 61° |
| 2026-04-30 22:36 | 55.36777 | -55.94755 | 39156 ft | 510 kts | 62° |
| 2026-04-30 22:37 | 55.43541 | -55.72916 | 39185 ft | 510 kts | 62° |
| 2026-04-30 22:38 | 55.50289 | -55.50926 | 39195 ft | 510 kts | 62° |
| 2026-04-30 22:39 | 55.55330 | -55.34366 | 39190 ft | 511 kts | 62° |
| 2026-04-30 22:40 | 55.65352 | -55.01092 | 39195 ft | 511 kts | 62° |
| 2026-04-30 22:41 | 55.73643 | -54.73204 | 39171 ft | 512 kts | 62° |
| 2026-04-30 22:43 | 55.83489 | -54.39651 | 39204 ft | 512 kts | 63° |
| 2026-04-30 22:44 | 55.90028 | -54.17097 | 39204 ft | 513 kts | 63° |
| 2026-04-30 22:45 | 55.99773 | -53.83076 | 39208 ft | 514 kts | 63° |
| 2026-04-30 22:47 | 56.09435 | -53.48844 | 39205 ft | 514 kts | 63° |
| 2026-04-30 22:48 | 56.15812 | -53.25967 | 39206 ft | 512 kts | 63° |
| 2026-04-30 22:49 | 56.25288 | -52.91549 | 39210 ft | 512 kts | 64° |
| 2026-04-30 22:51 | 56.34674 | -52.56937 | 39210 ft | 513 kts | 64° |
| 2026-04-30 22:52 | 56.39333 | -52.39559 | 39223 ft | 513 kts | 64° |
| 2026-04-30 22:53 | 56.45513 | -52.16302 | 39212 ft | 513 kts | 64° |
| 2026-04-30 22:53 | 56.50119 | -51.98809 | 39207 ft | 513 kts | 64° |
| 2026-04-30 22:55 | 56.57721 | -51.69639 | 39214 ft | 514 kts | 64° |
| 2026-04-30 22:56 | 56.63771 | -51.46148 | 39207 ft | 514 kts | 65° |
| 2026-04-30 22:57 | 56.71272 | -51.16673 | 39212 ft | 514 kts | 65° |
| 2026-04-30 22:58 | 56.77225 | -50.93001 | 39209 ft | 514 kts | 65° |
| 2026-04-30 22:59 | 56.86075 | -50.57334 | 39216 ft | 515 kts | 65° |